Latest Weather Observations for Nowra

IDN60901

Issued at 8:01 pm EST Tuesday 1 September 2015 (issued every 10 minutes, with the page automatically refreshed every 10 minutes)

About weather observations | Map of Canberra area stations | Latest observations for Canberra area | Other Formats
Station Details ID: 068072 Name: NOWRA RAN AIR STATION AWS Lat: -34.95 Lon: 150.54 Height: 109.0 m
Data from the previous 72 hours. | See also: Recent months at Nowra
Date/Time
EST
Tmp

°C
App
Tmp
°C
Dew
Point
°C
Rel
Hum
%
Delta-T

°C
Wind Press
QNH
hPa
Press
MSL
hPa
Rain
since
9 am
mm
Dir
 
Spd
km/h
Gust
km/h
Spd
kts
Gust
kts
01/07:30pm 8.2 5.5 5.8 85 1.1 W 9 11 5 6 1015.0 - 0.0
01/07:00pm 8.5 7.7 6.3 86 1.0 CALM 0 2 0 1 1014.8 - 0.0
01/06:30pm 8.1 6.0 5.9 86 1.0 SSW 6 7 3 4 1014.3 - 0.0
01/06:00pm 9.7 8.7 5.7 76 1.8 CALM 0 0 0 0 1014.0 1013.9 0.0
01/05:30pm 12.6 9.8 5.3 61 3.4 SE 9 17 5 9 1013.6 - 0.0
01/05:00pm 14.2 11.2 4.2 51 4.6 ESE 9 11 5 6 1013.4 - 0.0
01/04:30pm 15.1 11.7 3.9 47 5.2 E 11 13 6 7 1013.1 - 0.0
01/04:00pm 15.4 11.1 3.2 44 5.6 ESE 15 19 8 10 1012.8 - 0.0
01/03:30pm 16.3 11.8 4.0 44 5.7 ESE 17 20 9 11 1012.7 - 0.0
01/03:00pm 16.7 12.1 3.7 42 6.1 SE 17 20 9 11 1012.6 1012.6 0.0
01/02:30pm 17.4 12.6 4.4 42 6.2 ESE 19 24 10 13 1012.5 - 0.0
01/02:00pm 18.2 14.2 2.9 36 7.1 W 13 19 7 10 1012.5 - 0.0
01/01:30pm 17.9 14.8 3.8 39 6.6 WSW 9 17 5 9 1012.8 - 0.0
01/01:00pm 17.1 14.7 4.4 43 6.0 SSW 6 15 3 8 1013.3 - 0.0
01/12:30pm 16.2 13.4 2.9 41 6.1 SW 7 13 4 7 1013.8 - 0.0
01/12:00pm 15.7 11.6 2.2 40 6.0 W 13 26 7 14 1014.3 1014.2 0.0
01/11:30am 15.1 11.0 2.3 42 5.7 WSW 13 20 7 11 1014.7 - 0.0
01/11:00am 14.4 11.3 3.5 48 5.0 NW 9 22 5 12 1014.9 - 0.0
01/10:30am 14.3 10.5 3.7 49 4.8 W 13 19 7 10 1015.1 - 0.0
01/10:00am 13.5 9.0 4.4 54 4.2 W 17 20 9 11 1015.3 - 0.0
01/09:30am 13.0 8.2 4.9 58 3.8 W 19 26 10 14 1015.3 - 0.0
01/09:00am 12.1 6.9 5.5 64 3.1 W 22 28 12 15 1015.4 1015.3 0.0
01/08:30am 10.8 5.1 4.7 66 2.8 W 24 28 13 15 1015.6 - 0.0
01/08:00am 10.0 5.1 5.2 72 2.2 W 20 28 11 15 1015.5 - 0.0
01/07:30am 8.8 4.0 4.4 74 1.9 WNW 19 24 10 13 1015.5 - 0.0
01/07:00am 7.9 3.1 4.7 80 1.4 W 19 26 10 14 1015.3 - 0.0
01/06:30am 7.3 2.8 4.4 82 1.3 WNW 17 20 9 11 1014.8 - 0.0
01/06:00am 6.9 2.5 4.6 85 1.0 WNW 17 22 9 12 1014.6 1014.5 0.0
01/05:30am 7.3 2.3 4.8 84 1.1 WNW 20 26 11 14 1014.4 - 0.0
01/05:00am 7.7 3.3 4.7 81 1.3 W 17 19 9 10 1014.2 - 0.0
01/04:30am 6.9 2.3 5.5 91 0.6 WSW 19 20 10 11 1014.2 - 0.0
01/04:00am 6.7 3.5 5.3 91 0.6 WNW 11 13 6 7 1014.3 - 0.0
01/03:30am 6.3 3.4 4.6 89 0.7 SW 9 9 5 5 1014.5 - 0.0
01/03:00am 7.6 4.5 5.4 86 1.0 NW 11 15 6 8 1014.3 1014.2 0.0
01/02:30am 8.1 4.5 5.2 82 1.3 NW 13 15 7 8 1014.3 - 0.0
01/02:00am 8.5 5.3 5.3 80 1.4 NW 11 15 6 8 1014.7 - 0.0
01/01:30am 9.7 7.1 6.1 78 1.7 WNW 9 11 5 6 1015.0 - 0.0
01/01:00am 10.5 7.6 6.3 75 2.0 WNW 11 15 6 8 1015.3 - 0.0
01/12:30am 10.4 7.1 6.5 77 1.8 WNW 13 17 7 9 1015.3 - 0.0
01/12:00am 10.1 7.4 7.2 82 1.4 WNW 11 13 6 7 1015.5 1015.4 0.0
 
Date/Time
EST
Tmp

°C
App
Tmp
°C
Dew
Point
°C
Rel
Hum
%
Delta-T

°C
Wind Press
QNH
hPa
Press
MSL
hPa
Rain
since
9 am
mm
Dir
 
Spd
km/h
Gust
km/h
Spd
kts
Gust
kts
31/11:30pm 8.8 6.9 7.7 93 0.5 WNW 7 9 4 5 1015.4 - 0.0
31/11:00pm 9.3 7.9 7.3 87 0.9 W 4 7 2 4 1015.5 - 0.0
31/10:30pm 10.4 8.6 8.0 85 1.2 SSW 7 11 4 6 1015.5 - 0.0
31/10:00pm 10.8 8.3 8.2 84 1.3 W 11 13 6 7 1015.5 - 0.0
31/09:30pm 10.9 8.0 8.0 82 1.4 W 13 17 7 9 1015.6 - 0.0
31/09:00pm 11.7 8.0 8.0 78 1.8 W 17 20 9 11 1015.5 1015.5 0.0
31/08:30pm 11.4 7.8 8.3 81 1.5 W 17 19 9 10 1015.4 - 0.0
31/08:00pm 11.1 7.9 8.5 84 1.3 W 15 17 8 9 1015.5 - 0.0
31/07:30pm 10.4 8.4 8.5 88 0.9 W 9 11 5 6 1015.3 - 0.0
31/07:00pm 9.6 7.4 8.0 90 0.8 W 9 11 5 6 1015.1 - 0.0
31/06:30pm 9.1 7.1 7.2 88 0.9 SW 7 9 4 5 1014.8 - 0.0
31/06:00pm 10.2 8.2 7.3 82 1.4 SSW 7 9 4 5 1014.5 1014.5 0.0
31/05:30pm 12.7 9.6 7.2 69 2.7 S 13 20 7 11 1014.3 - 0.0
31/05:00pm 12.9 10.1 6.9 67 2.9 S 11 13 6 7 1014.2 - 0.0
31/04:30pm 14.3 11.0 6.4 59 3.8 SE 13 19 7 10 1013.8 - 0.0
31/04:00pm 14.8 11.0 5.9 55 4.3 SSE 15 20 8 11 1013.7 - 0.0
31/03:30pm 15.9 12.5 5.8 51 4.9 SSE 13 19 7 10 1013.7 - 0.0
31/03:00pm 16.3 12.9 5.9 50 5.1 SSE 13 19 7 10 1013.9 1013.9 0.0
31/02:30pm 15.1 11.3 5.9 54 4.4 SE 15 20 8 11 1014.2 - 0.0
31/02:00pm 16.3 12.4 5.3 48 5.3 SE 15 20 8 11 1014.4 - 0.0
31/01:30pm 16.9 13.2 4.6 44 5.8 S 13 19 7 10 1014.6 - 0.0
31/01:00pm 16.7 12.4 5.3 47 5.5 SSE 17 24 9 13 1014.8 - 0.0
31/12:30pm 15.7 12.6 3.5 44 5.6 S 9 17 5 9 1015.2 - 0.0
31/12:00pm 16.5 12.8 4.2 44 5.8 S 13 22 7 12 1015.6 1015.6 0.0
31/11:30am 15.2 11.1 4.3 48 5.1 S 15 17 8 9 1016.1 - 0.0
31/11:00am 15.6 10.6 4.6 48 5.2 S 20 20 11 11 1016.4 - 0.0
31/10:30am 14.3 10.8 3.7 49 4.8 WSW 11 17 6 9 1016.7 - 0.0
31/10:00am 14.1 10.8 4.4 52 4.5 W 11 17 6 9 1017.0 - 0.0
31/09:30am 13.0 9.4 4.9 58 3.8 WNW 13 17 7 9 1017.3 - 0.0
31/09:00am 12.0 8.4 5.2 63 3.1 WNW 13 19 7 10 1017.4 1017.5 0.2
31/08:30am 10.6 7.0 5.2 69 2.5 WNW 13 20 7 11 1017.4 - 0.2
31/08:00am 9.1 5.1 4.7 74 2.0 NW 15 20 8 11 1017.5 - 0.2
31/07:30am 8.0 3.8 4.0 76 1.7 WNW 15 19 8 10 1017.4 - 0.2
31/07:00am 6.7 2.9 4.0 83 1.2 WNW 13 15 7 8 1017.5 - 0.2
31/06:30am 5.7 1.4 3.5 86 0.9 WNW 15 17 8 9 1017.3 - 0.2
31/06:00am 5.8 1.3 4.0 88 0.8 WNW 17 20 9 11 1017.1 1017.2 0.2
31/05:30am 5.8 1.6 4.0 88 0.8 WNW 15 17 8 9 1017.0 - 0.2
31/05:00am 6.1 1.6 4.4 89 0.7 WNW 17 17 9 9 1017.0 - 0.2
31/04:30am 6.0 2.0 5.0 93 0.4 WNW 15 15 8 8 1017.0 - 0.2
31/04:00am 6.6 2.6 4.8 88 0.8 W 15 17 8 9 1017.1 - 0.2
31/03:30am 6.9 3.3 5.1 88 0.8 W 13 15 7 8 1017.1 - 0.2
31/03:00am 7.0 3.9 5.5 90 0.7 WSW 11 15 6 8 1017.3 1017.4 0.2
31/02:30am 7.1 3.7 5.7 91 0.6 W 13 17 7 9 1017.6 - 0.2
31/02:00am 7.6 4.3 6.2 91 0.6 WNW 13 15 7 8 1018.1 - 0.0
31/01:30am 7.7 5.3 7.0 95 0.3 WNW 9 15 5 8 1018.4 - 0.0
31/01:00am 7.8 5.3 6.6 92 0.6 W 9 13 5 7 1018.6 - 0.0
31/12:30am 7.9 4.9 7.8 99 0.0 W 13 17 7 9 1018.7 - 0.0
31/12:00am 8.3 4.7 8.2 99 0.0 W 17 17 9 9 1018.9 1019.0 0.0
 
Date/Time
EST
Tmp

°C
App
Tmp
°C
Dew
Point
°C
Rel
Hum
%
Delta-T

°C
Wind Press
QNH
hPa
Press
MSL
hPa
Rain
since
9 am
mm
Dir
 
Spd
km/h
Gust
km/h
Spd
kts
Gust
kts
30/11:30pm 8.8 6.0 8.7 99 0.0 W 13 15 7 8 1018.9 - 0.0
30/11:00pm 8.8 6.7 8.4 97 0.2 WSW 9 13 5 7 1019.0 - 0.0
30/10:30pm 9.3 6.6 8.8 97 0.2 W 13 15 7 8 1019.0 - 0.0
30/10:00pm 10.3 7.7 9.2 93 0.5 W 13 17 7 9 1019.1 - 0.0
30/09:30pm 10.8 8.3 9.6 92 0.6 W 13 13 7 7 1019.2 - 0.0
30/09:00pm 10.8 8.3 9.6 92 0.6 W 13 15 7 8 1019.1 1019.2 0.0
30/08:30pm 11.0 8.8 9.3 89 0.9 W 11 13 6 7 1019.1 - 0.0
30/08:00pm 11.4 9.5 9.0 85 1.2 W 9 11 5 6 1018.8 - 0.0
30/07:30pm 11.5 9.2 9.1 85 1.2 WSW 11 13 6 7 1018.7 - 0.0
30/07:00pm 12.0 9.0 7.9 76 2.0 WSW 13 17 7 9 1018.5 - 0.0
30/06:30pm 11.8 8.9 8.3 79 1.7 SW 13 15 7 8 1018.4 - 0.0
30/06:00pm 12.3 9.2 7.4 72 2.4 SSW 13 19 7 10 1018.3 1018.4 0.0
30/05:30pm 13.4 10.5 6.7 64 3.2 S 11 13 6 7 1018.0 - 0.0
30/05:00pm 13.7 11.3 7.2 65 3.2 S 9 11 5 6 1017.7 - 0.0
30/04:30pm 14.1 11.6 6.7 61 3.6 SSE 9 13 5 7 1017.5 - 0.0
30/04:00pm 14.5 10.4 6.1 57 4.0 SSE 17 20 9 11 1017.4 - 0.0
30/03:30pm 15.4 12.3 5.6 52 4.7 SSE 11 17 6 9 1017.4 - 0.0
30/03:00pm 15.5 12.0 5.4 51 4.8 SSE 13 17 7 9 1017.5 1017.6 0.0
30/02:30pm 15.9 13.2 5.5 50 5.0 ESE 9 13 5 7 1017.6 - 0.0
30/02:00pm 15.4 11.4 4.8 49 5.0 ESE 15 20 8 11 1017.8 - 0.0
30/01:30pm 15.4 11.3 4.2 47 5.2 SE 15 20 8 11 1018.0 - 0.0
30/01:00pm 16.3 11.6 5.0 47 5.4 S 19 22 10 12 1018.3 - 0.0
30/12:30pm 16.1 11.5 3.9 44 5.7 S 17 22 9 12 1018.7 - 0.0
30/12:00pm 14.8 8.5 3.6 47 5.1 S 26 33 14 18 1019.1 1019.2 0.0
30/11:30am 15.4 9.8 3.5 45 5.5 S 22 28 12 15 1019.5 - 0.0
30/11:00am 15.2 10.2 3.7 46 5.3 S 19 24 10 13 1019.8 - 0.0
30/10:30am 15.2 10.7 4.0 47 5.2 S 17 26 9 14 1020.0 - 0.0
30/10:00am 13.5 9.9 5.2 57 3.9 NW 13 19 7 10 1020.0 - 0.0
30/09:30am 12.5 8.5 5.0 60 3.5 WNW 15 20 8 11 1020.1 - 0.0
30/09:00am 11.2 6.4 4.9 65 2.9 WNW 19 22 10 12 1020.3 1020.4 0.0
30/08:30am 9.7 4.9 4.9 72 2.2 NW 19 24 10 13 1020.3 - 0.0
30/08:00am 8.7 3.6 3.3 69 2.3 NW 19 22 10 12 1020.3 - 0.0
30/07:30am 7.9 2.6 3.2 72 2.0 WNW 20 26 11 14 1020.0 - 0.0
30/07:00am 6.9 1.8 3.2 77 1.6 WNW 19 22 10 12 1019.8 - 0.0
30/06:30am 5.8 0.7 3.0 82 1.2 WNW 19 22 10 12 1019.7 - 0.0
30/06:00am 5.6 0.8 2.8 82 1.2 WNW 17 20 9 11 1019.6 1019.7 0.0
30/05:30am 5.7 0.9 2.7 81 1.2 NW 17 20 9 11 1019.5 - 0.0
30/05:00am 6.0 0.6 2.6 79 1.4 WNW 20 24 11 13 1019.5 - 0.0
30/04:30am 5.8 1.0 2.6 80 1.3 WNW 17 22 9 12 1019.5 - 0.0
30/04:00am 6.2 0.5 2.7 78 1.5 WNW 22 26 12 14 1019.4 - 0.0
30/03:30am 6.5 0.8 2.6 76 1.6 WNW 22 26 12 14 1019.4 - 0.0
30/03:00am 6.8 1.4 2.5 74 1.8 WNW 20 26 11 14 1019.5 1019.6 0.0
30/02:30am 6.8 1.4 2.5 74 1.8 NW 20 28 11 15 1019.8 - 0.0
30/02:00am 6.9 1.5 2.4 73 1.9 WNW 20 28 11 15 1020.0 - 0.0
30/01:30am 7.1 1.7 2.4 72 2.0 WNW 20 26 11 14 1020.3 - 0.0
30/01:00am 7.5 2.1 2.4 70 2.1 WNW 20 24 11 13 1020.6 - 0.0
30/12:30am 7.5 2.3 2.2 69 2.2 WNW 19 20 10 11 1020.6 - 0.0
30/12:00am 7.9 2.5 2.2 67 2.4 WNW 20 24 11 13 1020.5 1020.6 0.0
 
Date/Time
EST
Tmp

°C
App
Tmp
°C
Dew
Point
°C
Rel
Hum
%
Delta-T

°C
Wind Press
QNH
hPa
Press
MSL
hPa
Rain
since
9 am
mm
Dir
 
Spd
km/h
Gust
km/h
Spd
kts
Gust
kts
29/11:30pm 8.3 2.8 2.1 65 2.6 WNW 20 26 11 14 1020.3 - 0.0
29/11:00pm 8.3 3.0 2.1 65 2.6 NW 19 22 10 12 1020.5 - 0.0
29/10:30pm 8.7 3.4 1.8 62 2.9 NW 19 22 10 12 1020.5 - 0.0
29/10:00pm 8.9 3.6 2.0 62 2.9 WNW 19 22 10 12 1020.3 - 0.0
29/09:30pm 8.0 3.9 2.3 67 2.4 NW 13 15 7 8 1020.5 - 0.0
29/09:00pm 8.5 5.1 2.1 64 2.7 WNW 9 13 5 7 1020.4 1020.5 0.0
29/08:30pm 8.6 5.0 2.8 67 2.5 W 11 15 6 8 1020.2 - 0.0

Latest Capital City Observations: Canberra | Sydney | Melbourne | Brisbane | Adelaide | Perth | Hobart | Darwin

Other Formats:

Comma delimited format used in spreadsheet applications
http://www.bom.gov.au/fwo/IDN60903/IDN60903.94750.axf

JavaScript Object Notation format (JSON) in row-major order
http://www.bom.gov.au/fwo/IDN60903/IDN60903.94750.json